.
WxDataArchive / Data Records for 2010-06-08
2010-06-07 June 2010 2010-06-09

Data Records for Tuesday, 08 June 2010

Time	Temp	Chill	HIndex	Humid	Dewpt	 Wind 	HiWind	WindDir	Rain 	Barom 
-----	----	-----	------	-----	-----	------	------	-------	-----	----- 
00:00	57.5	57.5	57.5	78	50.7	0	0	---	0.00	30.084 
00:05	57.5	57.5	57.5	78	50.7	0	0	---	0.00	30.084 
00:10	57.6	57.6	57.6	77	50.4	0	0	---	0.00	30.084 
00:15	57.8	57.8	57.8	77	50.6	0	0	---	0.00	30.085 
00:20	57.8	57.8	57.8	77	50.6	0	0	---	0.00	30.085 
00:25	57.6	57.6	57.6	77	50.4	0	0	---	0.00	30.085 
00:30	57.5	57.5	57.5	77	50.3	0	0	---	0.00	30.085 
00:35	57.5	57.5	57.5	77	50.3	0	0	---	0.00	30.085 
00:40	57.2	57.2	57.2	78	50.4	0	0	---	0.00	30.085 
00:45	57.0	57.0	57.0	78	50.2	0	0	---	0.00	30.084 
00:50	56.9	56.9	56.9	80	50.8	0	0	---	0.00	30.084 
00:55	56.7	56.7	56.7	80	50.6	0	0	---	0.00	30.084 
01:00	56.5	56.5	56.5	81	50.7	0	0	---	0.00	30.085 
01:05	56.3	56.3	56.3	81	50.5	0	0	---	0.00	30.085 
01:10	56.0	56.0	56.0	81	50.3	0	0	---	0.00	30.085 
01:15	55.9	55.9	55.9	81	50.2	0	0	---	0.00	30.080 
01:20	55.7	55.7	55.7	82	50.3	0	0	---	0.00	30.080 
01:25	55.6	55.6	55.6	82	50.2	0	0	---	0.00	30.080 
01:30	55.4	55.4	55.4	83	50.3	0	0	---	0.00	30.088 
01:35	55.3	55.3	55.3	84	50.5	0	0	---	0.00	30.088 
01:40	55.1	55.1	55.1	84	50.4	0	0	---	0.00	30.088 
01:45	55.0	55.0	55.0	84	50.3	0	0	---	0.00	30.094 
01:50	54.8	54.8	54.8	85	50.4	0	0	---	0.00	30.094 
01:55	54.7	54.7	54.7	86	50.6	0	0	---	0.00	30.094 
02:00	54.5	54.5	54.5	86	50.4	0	0	---	0.00	30.095 
02:05	54.4	54.4	54.4	86	50.3	0	0	---	0.00	30.095 
02:10	54.2	54.2	54.2	86	50.1	0	0	---	0.00	30.095 
02:15	54.2	54.2	54.2	87	50.4	0	0	---	0.00	30.094 
02:20	54.1	54.1	54.1	87	50.3	0	0	---	0.00	30.094 
02:25	53.9	53.9	53.9	87	50.1	0	0	---	0.00	30.094 
02:30	53.8	53.8	53.8	87	50.0	0	0	---	0.00	30.094 
02:35	53.6	53.6	53.6	87	49.8	0	0	---	0.00	30.094 
02:40	53.5	53.5	53.5	87	49.7	0	0	---	0.00	30.094 
02:45	53.5	53.5	53.5	87	49.7	0	0	---	0.00	30.093 
02:50	53.3	53.3	53.3	87	49.5	0	0	---	0.00	30.093 
02:55	53.2	53.2	53.2	88	49.7	0	0	---	0.00	30.093 
03:00	53.1	53.1	53.1	88	49.6	0	0	---	0.00	30.093 
03:05	52.9	52.9	52.9	88	49.4	0	0	---	0.00	30.093 
03:10	52.8	52.8	52.8	88	49.3	0	0	---	0.00	30.093 
03:15	52.6	52.6	52.6	88	49.1	0	0	---	0.00	30.086 
03:20	52.5	52.5	52.5	88	49.0	0	0	---	0.00	30.086 
03:25	52.5	52.5	52.5	89	49.4	0	0	---	0.00	30.086 
03:30	52.3	52.3	52.3	89	49.2	0	0	---	0.00	30.089 
03:35	52.3	52.3	52.3	89	49.2	0	0	---	0.00	30.089 
03:40	52.2	52.2	52.2	90	49.4	0	0	---	0.00	30.089 
03:45	52.0	52.0	52.0	90	49.2	0	0	---	0.00	30.094 
03:50	51.9	51.9	51.9	90	49.1	0	0	---	0.00	30.094 
03:55	51.9	51.9	51.9	90	49.1	0	0	---	0.00	30.094 
04:00	51.7	51.7	51.7	90	48.9	0	0	---	0.00	30.095 
04:05	51.7	51.7	51.7	90	48.9	0	0	---	0.00	30.095 
04:10	51.6	51.6	51.6	90	48.8	0	0	---	0.00	30.095 
04:15	51.6	51.6	51.6	91	49.1	0	0	---	0.00	30.093 
04:20	51.4	51.4	51.4	91	48.9	0	0	---	0.00	30.093 
04:25	51.3	51.3	51.3	91	48.8	0	0	---	0.00	30.093 
04:30	51.3	51.3	51.3	91	48.8	0	0	---	0.00	30.097 
04:35	51.1	51.1	51.1	91	48.6	0	0	---	0.00	30.097 
04:40	51.0	51.0	51.0	91	48.5	0	0	---	0.00	30.097 
04:45	51.0	51.0	51.0	91	48.5	0	0	---	0.00	30.095 
04:50	50.8	50.8	50.8	91	48.3	0	0	---	0.00	30.095 
04:55	50.8	50.8	50.8	92	48.6	0	0	---	0.00	30.095 
05:00	50.8	50.8	50.8	92	48.6	0	0	---	0.00	30.101 
05:05	50.7	50.7	50.7	92	48.5	0	0	---	0.00	30.101 
05:10	50.7	50.7	50.7	92	48.5	0	0	---	0.00	30.101 
05:15	50.5	50.5	50.5	92	48.3	0	0	---	0.00	30.104 
05:20	50.5	50.5	50.5	92	48.3	0	0	---	0.00	30.104 
05:25	50.5	50.5	50.5	92	48.3	0	0	---	0.00	30.104 
05:30	50.5	50.5	50.5	92	48.3	0	0	---	0.00	30.102 
05:35	50.5	50.5	50.5	92	48.3	0	0	---	0.00	30.102 
05:40	50.4	50.4	50.4	92	48.2	0	0	---	0.00	30.102 
05:45	50.4	50.4	50.4	92	48.2	0	0	---	0.00	30.100 
05:50	50.2	50.2	50.2	93	48.3	0	0	---	0.00	30.100 
05:55	50.2	50.2	50.2	93	48.3	0	0	---	0.00	30.100 
06:00	50.2	50.2	50.2	93	48.3	0	0	---	0.00	30.111 
06:05	50.2	50.2	50.2	93	48.3	0	0	---	0.00	30.111 
06:10	50.1	50.1	50.1	93	48.2	0	0	---	0.00	30.111 
06:15	50.1	50.1	50.1	93	48.2	0	0	---	0.00	30.121 
06:20	50.1	50.1	50.1	93	48.2	0	0	---	0.00	30.121 
06:25	50.1	50.1	50.1	93	48.2	0	0	---	0.00	30.121 
06:30	50.1	50.1	50.1	93	48.2	0	0	---	0.00	30.128 
06:35	50.2	50.2	50.2	94	48.5	0	0	---	0.00	30.128 
06:40	50.4	50.4	50.4	94	48.7	0	0	---	0.00	30.128 
06:45	50.5	50.5	50.5	94	48.8	0	0	---	0.00	30.129 
06:50	51.0	51.0	51.0	94	49.3	0	0	---	0.00	30.129 
06:55	51.4	51.4	51.4	95	50.0	0	0	---	0.00	30.129 
07:00	51.9	51.9	51.9	95	50.5	0	0	---	0.00	30.140 
07:05	52.3	52.3	52.3	95	50.9	0	0	---	0.00	30.140 
07:10	52.6	52.6	52.6	95	51.2	0	0	---	0.00	30.140 
07:15	53.1	53.1	53.1	95	51.7	0	0	---	0.00	30.142 
07:20	53.5	53.5	53.5	93	51.5	0	3	292	0.00	30.142 
07:25	54.2	54.2	54.2	86	50.1	1	3	90	0.00	30.142 
07:30	55.0	55.0	55.0	82	49.6	0	2	90	0.00	30.146 
07:35	55.6	55.6	55.6	81	49.9	0	1	90	0.00	30.146 
07:40	56.0	56.0	56.0	80	49.9	0	1	90	0.00	30.146 
07:45	56.5	56.5	56.5	79	50.1	0	2	90	0.00	30.144 
07:50	56.7	56.7	56.7	79	50.3	0	2	90	0.00	30.144 
07:55	57.0	57.0	57.0	77	49.9	1	3	90	0.00	30.144 
08:00	57.3	57.3	57.3	77	50.1	0	2	90	0.00	30.142 
08:05	57.8	57.8	57.8	76	50.3	1	3	90	0.00	30.142 
08:10	58.1	58.1	58.1	75	50.2	1	4	90	0.00	30.142 
08:15	58.7	58.7	58.7	76	51.2	0	3	90	0.00	30.148 
08:20	59.0	59.0	59.0	74	50.7	0	3	90	0.00	30.148 
08:25	59.5	59.5	59.5	75	51.6	0	1	90	0.00	30.148 
08:30	60.4	60.4	60.4	72	51.3	1	3	90	0.00	30.147 
08:35	61.3	61.3	61.3	71	51.8	2	5	90	0.00	30.147 
08:40	62.0	62.0	62.0	70	52.1	1	4	68	0.00	30.147 
08:45	62.3	62.3	62.3	69	52.0	1	4	90	0.00	30.143 
08:50	62.3	62.3	62.3	69	52.0	0	1	90	0.00	30.143 
08:55	62.1	62.1	62.1	71	52.6	0	2	90	0.00	30.143 
09:00	62.3	62.3	62.3	73	53.5	0	2	90	0.00	30.141 
09:05	62.9	62.9	62.9	70	53.0	1	3	90	0.00	30.141 
09:10	62.9	62.9	62.9	70	53.0	1	3	90	0.00	30.141 
09:15	62.9	62.9	62.9	70	53.0	0	1	90	0.00	30.141 
09:20	62.7	62.7	62.7	70	52.8	1	3	90	0.00	30.141 
09:25	62.9	62.9	62.9	71	53.3	0	3	90	0.00	30.141 
09:30	63.1	63.1	63.1	69	52.8	0	1	90	0.00	30.145 
09:35	63.2	63.2	63.2	68	52.5	0	1	90	0.00	30.145 
09:40	63.4	63.4	63.4	67	52.2	0	0	---	0.00	30.145 
09:45	63.5	63.5	63.5	68	52.7	0	2	90	0.00	30.147 
09:50	63.7	63.7	63.7	69	53.3	0	1	90	0.00	30.147 
09:55	63.7	63.7	63.7	69	53.3	0	1	90	0.00	30.147 
10:00	63.9	63.9	63.9	69	53.5	0	2	90	0.00	30.154 
10:05	63.9	63.9	63.9	68	53.1	0	1	90	0.00	30.154 
10:10	64.0	64.0	64.0	69	53.6	0	1	90	0.00	30.154 
10:15	64.2	64.2	64.2	68	53.4	0	2	90	0.00	30.147 
10:20	64.2	64.2	64.2	69	53.8	0	2	90	0.00	30.147 
10:25	64.5	64.5	64.5	67	53.3	0	1	90	0.00	30.147 
10:30	65.0	65.0	65.0	67	53.8	0	2	90	0.00	30.145 
10:35	65.3	65.3	65.3	67	54.1	0	2	158	0.00	30.145 
10:40	65.6	65.6	65.6	68	54.7	0	2	158	0.00	30.145 
10:45	65.8	65.8	65.8	65	53.7	0	2	158	0.00	30.139 
10:50	66.1	66.1	66.1	66	54.4	0	1	158	0.00	30.139 
10:55	66.3	66.3	66.3	65	54.2	0	2	158	0.00	30.139 
11:00	66.4	66.4	66.4	65	54.3	0	1	158	0.00	30.141 
11:05	66.8	66.8	66.8	65	54.6	0	1	158	0.00	30.141 
11:10	67.1	67.1	67.1	65	54.9	0	2	158	0.00	30.141 
11:15	67.3	67.3	67.3	63	54.3	1	4	112	0.00	30.141 
11:20	67.4	67.4	67.4	62	53.9	0	2	112	0.00	30.141 
11:25	67.6	67.6	67.6	62	54.1	0	1	112	0.00	30.141 
11:30	67.6	67.6	67.6	64	55.0	1	3	112	0.00	30.139 
11:35	67.6	67.6	67.6	65	55.4	0	1	112	0.00	30.139 
11:40	67.6	67.6	67.6	62	54.1	0	1	112	0.00	30.139 
11:45	67.9	67.9	67.9	64	55.3	0	1	112	0.00	30.141 
11:50	68.1	68.1	68.1	61	54.1	0	1	112	0.00	30.141 
11:55	68.3	68.3	68.3	61	54.3	0	1	112	0.00	30.141 
12:00	68.3	68.3	68.3	61	54.3	1	2	112	0.00	30.140 
12:05	68.4	68.4	68.4	59	53.5	0	1	112	0.00	30.140 
12:10	68.6	68.6	68.6	59	53.7	0	1	112	0.00	30.140 
12:15	68.8	68.8	68.8	60	54.3	0	1	112	0.00	30.138 
12:20	68.9	68.9	68.9	59	54.0	0	2	112	0.00	30.138 
12:25	68.9	68.9	68.9	58	53.5	1	2	112	0.00	30.138 
12:30	68.9	68.9	68.9	58	53.5	0	2	112	0.00	30.138 
12:35	69.3	69.3	69.3	54	51.9	0	1	112	0.00	30.138 
12:40	69.6	69.6	69.6	54	52.2	1	3	135	0.00	30.138 
12:45	69.9	69.9	69.9	54	52.5	0	4	112	0.00	30.129 
12:50	70.1	70.1	70.1	54	52.7	0	2	112	0.00	30.129 
12:55	70.1	70.1	70.1	53	52.2	0	2	112	0.00	30.129 
13:00	69.9	69.9	69.9	54	52.5	0	2	135	0.00	30.132 
13:05	69.8	69.8	69.8	53	51.9	1	3	68	0.00	30.132 
13:10	69.6	69.6	69.6	53	51.7	1	3	68	0.00	30.132 
13:15	69.4	69.4	69.4	55	52.5	0	1	68	0.00	30.123 
13:20	69.4	69.4	69.4	56	53.0	0	2	68	0.00	30.123 
13:25	69.3	69.3	69.3	54	51.9	0	1	68	0.00	30.123 
13:30	69.3	69.3	69.3	53	51.4	0	3	68	0.00	30.114 
13:35	69.1	69.1	69.1	54	51.7	0	2	68	0.00	30.114 
13:40	69.1	69.1	69.1	53	51.2	0	1	68	0.00	30.114 
13:45	69.1	69.1	69.1	54	51.7	0	1	68	0.00	30.111 
13:50	68.9	68.9	68.9	55	52.1	0	2	68	0.00	30.111 
13:55	68.9	68.9	68.9	55	52.1	0	1	68	0.00	30.111 
14:00	68.9	68.9	68.9	56	52.5	0	1	68	0.00	30.103 
14:05	69.3	69.3	69.3	57	53.4	0	2	68	0.00	30.103 
14:10	69.3	69.3	69.3	57	53.4	1	3	68	0.00	30.103 
14:15	69.3	69.3	69.3	57	53.4	1	3	90	0.00	30.097 
14:20	69.1	69.1	69.1	58	53.7	0	2	90	0.00	30.097 
14:25	69.1	69.1	69.1	55	52.2	0	1	45	0.00	30.097 
14:30	68.9	68.9	68.9	56	52.5	0	1	45	0.00	30.098 
14:35	69.1	69.1	69.1	58	53.7	0	0	---	0.00	30.098 
14:40	69.3	69.3	69.3	58	53.9	0	1	45	0.00	30.098 
14:45	69.4	69.4	69.4	55	52.5	0	2	45	0.00	30.098 
14:50	69.6	69.6	69.6	56	53.2	0	2	45	0.00	30.098 
14:55	69.6	69.6	69.6	56	53.2	0	1	45	0.00	30.098 
15:00	69.6	69.6	69.6	56	53.2	0	1	45	0.00	30.099 
15:05	69.4	69.4	69.4	54	52.0	0	3	90	0.00	30.099 
15:10	69.3	69.3	69.3	56	52.9	0	2	90	0.00	30.099 
15:15	69.1	69.1	69.1	57	53.2	0	2	90	0.00	30.097 
15:20	69.1	69.1	69.1	56	52.7	0	0	---	0.00	30.097 
15:25	68.9	68.9	68.9	57	53.0	0	2	180	0.00	30.097 
15:30	68.9	68.9	68.9	62	55.3	0	2	180	0.00	30.092 
15:35	68.6	68.6	68.6	63	55.5	0	2	180	0.00	30.092 
15:40	68.3	68.3	68.3	64	55.6	0	3	135	0.00	30.092 
15:45	67.9	67.9	67.9	65	55.7	0	1	112	0.00	30.090 
15:50	67.8	67.8	67.8	64	55.2	0	1	112	0.00	30.090 
15:55	67.8	67.8	67.8	64	55.2	0	1	112	0.00	30.090 
16:00	67.8	67.8	67.8	68	56.8	0	0	---	0.00	30.104 
16:05	67.8	67.8	67.8	68	56.8	0	0	---	0.00	30.104 
16:10	67.8	67.8	67.8	67	56.4	0	0	---	0.00	30.104 
16:15	67.6	67.6	67.6	68	56.7	0	2	45	0.00	30.093 
16:20	67.4	67.4	67.4	66	55.6	1	4	45	0.00	30.093 
16:25	67.6	67.6	67.6	67	56.2	0	1	68	0.00	30.093 
16:30	67.6	67.6	67.6	68	56.7	0	2	68	0.01	30.083 
16:35	67.6	67.6	67.6	69	57.1	0	2	68	0.00	30.083 
16:40	67.6	67.6	67.6	69	57.1	0	2	68	0.00	30.083 
16:45	67.8	67.8	67.8	67	56.4	1	4	68	0.00	30.083 
16:50	67.8	67.8	67.8	66	56.0	1	3	68	0.00	30.083 
16:55	67.8	67.8	67.8	68	56.8	1	2	68	0.00	30.083 
17:00	67.9	67.9	67.9	68	56.9	1	2	68	0.00	30.076 
17:05	67.8	67.8	67.8	67	56.4	1	3	68	0.00	30.076 
17:10	67.8	67.8	67.8	67	56.4	1	4	68	0.00	30.076 
17:15	67.8	67.8	67.8	70	57.6	1	5	90	0.00	30.067 
17:20	67.6	67.6	67.6	73	58.6	2	5	68	0.00	30.067 
17:25	66.8	66.8	66.8	72	57.5	3	9	90	0.00	30.067 
17:30	66.3	66.3	66.3	73	57.4	3	5	90	0.00	30.054 
17:35	66.0	66.0	66.0	73	57.1	2	5	90	0.00	30.054 
17:40	65.6	65.6	65.6	76	57.8	2	5	90	0.00	30.054 
17:45	65.3	65.3	65.3	78	58.3	1	4	90	0.00	30.060 
17:50	65.0	65.0	65.0	79	58.3	1	3	68	0.00	30.060 
17:55	64.7	64.7	64.7	80	58.4	1	4	68	0.01	30.060 
18:00	64.5	64.5	64.5	81	58.5	1	6	90	0.00	30.055 
18:05	64.2	64.2	64.2	81	58.2	1	4	68	0.00	30.055 
18:10	64.0	64.0	64.0	81	58.0	2	6	112	0.00	30.055 
18:15	63.7	63.7	63.7	81	57.8	2	6	112	0.00	30.040 
18:20	63.5	63.5	63.5	82	57.9	2	5	112	0.01	30.040 
18:25	63.4	63.4	63.4	83	58.1	2	5	90	0.00	30.040 
18:30	63.4	63.4	63.4	84	58.5	2	4	90	0.00	30.037 
18:35	63.2	63.2	63.2	84	58.3	2	5	90	0.00	30.037 
18:40	63.1	63.1	63.1	84	58.2	2	5	90	0.00	30.037 
18:45	62.9	62.9	62.9	85	58.3	3	7	90	0.01	30.030 
18:50	62.9	62.9	62.9	86	58.6	2	4	90	0.00	30.030 
18:55	62.7	62.7	62.7	86	58.4	2	6	90	0.00	30.030 
19:00	62.6	62.6	62.6	86	58.3	1	3	68	0.00	30.038 
19:05	62.6	62.6	62.6	87	58.7	2	5	68	0.01	30.038 
19:10	62.4	62.4	62.4	87	58.5	2	5	68	0.00	30.038 
19:15	62.3	62.3	62.3	87	58.4	2	4	90	0.00	30.019 
19:20	62.1	62.1	62.1	87	58.2	2	5	90	0.01	30.019 
19:25	62.0	62.0	62.0	88	58.4	2	5	90	0.00	30.019 
19:30	61.8	61.8	61.8	88	58.2	2	4	90	0.01	30.016 
19:35	61.6	61.6	61.6	88	58.0	2	5	68	0.00	30.016 
19:40	61.6	61.6	61.6	88	58.0	2	4	90	0.00	30.016 
19:45	61.5	61.5	61.5	89	58.2	2	5	90	0.01	30.008 
19:50	61.5	61.5	61.5	89	58.2	2	5	90	0.00	30.008 
19:55	61.5	61.5	61.5	90	58.5	1	3	90	0.01	30.008 
20:00	61.3	61.3	61.3	90	58.3	2	4	90	0.00	30.005 
20:05	61.3	61.3	61.3	91	58.6	2	5	90	0.00	30.005 
20:10	61.3	61.3	61.3	91	58.6	2	5	90	0.00	30.005 
20:15	61.3	61.3	61.3	91	58.6	1	3	90	0.01	30.007 
20:20	61.3	61.3	61.3	92	59.0	1	4	68	0.00	30.007 
20:25	61.2	61.2	61.2	92	58.9	1	3	68	0.00	30.007 
20:30	61.3	61.3	61.3	92	59.0	0	2	68	0.01	30.003 
20:35	61.3	61.3	61.3	92	59.0	2	4	68	0.00	30.003 
20:40	61.2	61.2	61.2	92	58.9	1	4	90	0.00	30.003 
20:45	61.2	61.2	61.2	93	59.2	1	3	90	0.01	29.992 
20:50	61.2	61.2	61.2	93	59.2	2	4	90	0.00	29.992 
20:55	61.0	61.0	61.0	93	59.0	2	6	90	0.02	29.992 
21:00	61.0	61.0	61.0	93	59.0	2	5	90	0.00	29.979 
21:05	60.9	60.9	60.9	93	58.9	2	4	90	0.00	29.979 
21:10	60.9	60.9	60.9	93	58.9	2	5	90	0.01	29.979 
21:15	60.9	60.9	60.9	94	59.2	2	5	68	0.01	29.994 
21:20	60.9	60.9	60.9	94	59.2	1	3	90	0.02	29.994 
21:25	60.9	60.9	60.9	94	59.2	1	3	68	0.07	29.994 
21:30	60.9	60.9	60.9	94	59.2	2	5	90	0.03	29.988 
21:35	60.9	60.9	60.9	94	59.2	2	5	112	0.02	29.988 
21:40	60.7	60.7	60.7	94	59.0	2	6	90	0.01	29.988 
21:45	60.7	60.7	60.7	95	59.3	1	4	112	0.01	29.984 
21:50	60.7	60.7	60.7	95	59.3	1	4	90	0.02	29.984 
21:55	60.5	60.5	60.5	95	59.1	2	6	90	0.00	29.984 
22:00	60.5	60.5	60.5	95	59.1	2	5	90	0.01	29.982 
22:05	60.5	60.5	60.5	95	59.1	2	5	90	0.00	29.982 
22:10	60.4	60.4	60.4	95	59.0	3	7	90	0.00	29.982 
22:15	60.4	60.4	60.4	95	59.0	2	9	90	0.00	29.977 
22:20	60.2	60.2	60.2	95	58.8	3	6	68	0.00	29.977 
22:25	60.2	60.2	60.2	95	58.8	3	9	90	0.00	29.977 
22:30	60.1	60.1	60.1	95	58.7	4	7	90	0.00	29.978 
22:35	59.9	59.9	59.9	95	58.5	3	9	90	0.01	29.978 
22:40	59.9	59.9	59.9	95	58.5	3	6	90	0.00	29.978 
22:45	59.8	59.8	59.8	95	58.4	3	7	90	0.00	29.978 
22:50	59.8	59.8	59.8	95	58.4	2	4	90	0.00	29.978 
22:55	59.6	59.6	59.6	95	58.2	3	7	90	0.00	29.978 
23:00	59.5	59.5	59.5	95	58.1	3	6	90	0.00	29.968 
23:05	59.5	59.5	59.5	95	58.1	2	6	90	0.00	29.968 
23:10	59.5	59.5	59.5	95	58.1	2	6	90	0.00	29.968 
23:15	59.3	59.3	59.3	95	57.9	2	6	90	0.00	29.958 
23:20	59.3	59.3	59.3	95	57.9	1	6	90	0.00	29.958 
23:25	59.3	59.3	59.3	95	57.9	2	6	112	0.00	29.958 
23:30	59.3	59.3	59.3	95	57.9	2	5	90	0.00	29.955 
23:35	59.3	59.3	59.3	95	57.9	2	5	112	0.00	29.955 
23:40	59.3	59.3	59.3	95	57.9	2	6	90	0.00	29.955 
23:45	59.3	59.3	59.3	95	57.9	2	5	90	0.00	29.946 
23:50	59.3	59.3	59.3	95	57.9	2	5	90	0.00	29.946 
23:55	59.3	59.3	59.3	95	57.9	2	5	90	0.00	29.946 

CoCoRaHS
IN-AL-39
A2 Web Hosting
Creative Commons License
GoDaddy
search engine by freefind advanced

loaded 2018-11-15 03:02:03 • last modified 2010-11-18 10:43:29
Privacy PolicyDisclaimer
• wx.awcolley.com is powered by PmWiki v.2002016 •
• all content (unless otherwise noted) © 2018 A W Colley